createdAt,value
2018-04-07T00:02:17.573Z,1.90
2018-04-07T00:04:45.180Z,1.90
2018-04-07T00:07:15.696Z,2.00
2018-04-07T00:09:43.315Z,2.00
2018-04-07T00:12:10.915Z,2.00
2018-04-07T00:14:38.519Z,2.00
2018-04-07T00:17:06.871Z,1.90
2018-04-07T00:19:34.493Z,1.80
2018-04-07T00:22:02.089Z,1.90
2018-04-07T00:24:29.693Z,1.70
2018-04-07T00:26:57.302Z,1.70
2018-04-07T00:29:24.908Z,1.60
2018-04-07T00:31:52.517Z,1.60
2018-04-07T00:34:20.136Z,1.60
2018-04-07T00:36:47.740Z,1.50
2018-04-07T00:39:15.339Z,1.50
2018-04-07T00:41:43.708Z,1.30
2018-04-07T00:44:12.068Z,1.30
2018-04-07T00:46:39.671Z,1.20
2018-04-07T00:49:07.274Z,1.20
2018-04-07T00:51:34.892Z,1.20
2018-04-07T00:54:02.497Z,1.10
2018-04-07T00:56:30.158Z,1.10
2018-04-07T00:58:57.760Z,1.10
2018-04-07T01:01:25.360Z,1.10
2018-04-07T01:03:52.989Z,1.10
2018-04-07T01:06:20.580Z,1.10
2018-04-07T01:08:48.172Z,1.00
2018-04-07T01:11:15.796Z,1.00
2018-04-07T01:13:43.388Z,1.00
2018-04-07T01:16:10.976Z,0.90
2018-04-07T01:18:39.339Z,0.90
2018-04-07T01:21:07.700Z,0.80
2018-04-07T01:23:35.293Z,0.80
2018-04-07T01:26:02.909Z,0.80
2018-04-07T01:28:30.515Z,0.80
2018-04-07T01:30:58.140Z,0.80
2018-04-07T01:33:25.753Z,0.80
2018-04-07T01:35:53.380Z,0.80
2018-04-07T01:38:21.740Z,0.80
2018-04-07T01:40:49.372Z,0.70
2018-04-07T01:43:16.972Z,0.80
2018-04-07T01:45:45.339Z,0.70
2018-04-07T01:48:12.947Z,0.70
2018-04-07T01:50:40.543Z,0.70
2018-04-07T01:53:08.143Z,0.80
2018-04-07T01:55:36.511Z,0.70
2018-04-07T01:58:04.874Z,0.80
2018-04-07T02:00:32.468Z,0.70
